createdAt,value
2022-11-28T00:01:06.908Z,100955.81
2022-11-28T00:03:33.681Z,100952.66
2022-11-28T00:06:05.656Z,100971.63
2022-11-28T00:08:33.456Z,100977.84
2022-11-28T00:11:07.845Z,100949.72
2022-11-28T00:13:36.176Z,100943.88
2022-11-28T00:16:07.431Z,100971.88
2022-11-28T00:18:34.446Z,100969.78
2022-11-28T00:21:10.112Z,100959.94
2022-11-28T00:23:37.376Z,100967.31
2022-11-28T00:26:14.077Z,100933.91
2022-11-28T00:28:40.735Z,100919.72
2022-11-28T00:31:12.809Z,100911.19
2022-11-28T00:33:39.577Z,100896.50
2022-11-28T00:36:06.698Z,100899.22
2022-11-28T00:38:33.211Z,100892.53
2022-11-28T00:41:03.253Z,100884.00
2022-11-28T00:43:30.104Z,100892.88
2022-11-28T00:45:56.895Z,100889.72
2022-11-28T00:48:24.097Z,100892.88
2022-11-28T00:50:50.776Z,100873.44
2022-11-28T00:53:17.467Z,100881.41
2022-11-28T00:55:43.955Z,100889.38
2022-11-28T00:58:10.445Z,100899.69
2022-11-28T01:00:37.841Z,100883.75
2022-11-28T01:03:04.632Z,100885.88
2022-11-28T01:05:31.134Z,100899.31
2022-11-28T01:07:57.697Z,100904.72
2022-11-28T01:10:24.186Z,100897.13
2022-11-28T01:12:50.695Z,100901.31
2022-11-28T01:15:17.447Z,100887.13
2022-11-28T01:17:44.704Z,100869.69
2022-11-28T01:20:12.050Z,100849.72
2022-11-28T01:22:38.600Z,100837.56
2022-11-28T01:25:05.552Z,100851.16
2022-11-28T01:27:32.136Z,100851.88
2022-11-28T01:29:58.579Z,100836.25
2022-11-28T01:32:25.054Z,100843.31
2022-11-28T01:34:51.652Z,100856.44
2022-11-28T01:37:18.360Z,100853.13
2022-11-28T01:39:44.819Z,100838.84
2022-11-28T01:42:20.874Z,100832.88
2022-11-28T01:44:50.282Z,100822.66
2022-11-28T01:47:21.974Z,100812.47
2022-11-28T01:49:50.379Z,100809.19
2022-11-28T01:52:19.443Z,100795.13
2022-11-28T01:54:50.871Z,100777.78
2022-11-28T01:57:22.311Z,100769.13
2022-11-28T02:00:09.809Z,100770.56
2022-11-28T02:02:46.553Z,100781.91
2022-11-28T02:05:13.836Z,100778.03
2022-11-28T02:07:41.201Z,100754.50
2022-11-28T02:10:10.745Z,100767.63
2022-11-28T02:13:13.894Z,100797.41
2022-11-28T02:15:52.515Z,100783.44
2022-11-28T02:18:41.200Z,100785.78
2022-11-28T02:21:24.978Z,100777.22
2022-11-28T02:24:23.814Z,100784.75
2022-11-28T02:27:09.244Z,100788.81
2022-11-28T02:30:04.425Z,100786.94
2022-11-28T02:32:44.963Z,100765.59
2022-11-28T02:35:21.014Z,100759.88
2022-11-28T02:38:00.006Z,100759.53
2022-11-28T02:40:48.782Z,100757.66
2022-11-28T02:43:31.645Z,100770.78
2022-11-28T02:46:06.865Z,100758.94
2022-11-28T02:48:43.858Z,100740.53
2022-11-28T02:51:21.919Z,100731.84
2022-11-28T02:53:50.865Z,100736.38
2022-11-28T02:56:17.862Z,100736.53
2022-11-28T02:58:44.461Z,100732.09
2022-11-28T03:01:19.694Z,100739.84
2022-11-28T03:04:25.107Z,100740.78
2022-11-28T03:07:03.900Z,100745.84
2022-11-28T03:09:53.749Z,100747.56
2022-11-28T03:12:44.204Z,100741.81
2022-11-28T03:15:15.649Z,100735.06
2022-11-28T03:17:47.872Z,100742.31
2022-11-28T03:20:28.987Z,100740.22
2022-11-28T03:23:19.613Z,100733.78
2022-11-28T03:25:54.891Z,100740.56
2022-11-28T03:28:45.342Z,100738.13
2022-11-28T03:31:17.491Z,100746.69
2022-11-28T03:33:49.234Z,100739.13
2022-11-28T03:36:21.176Z,100727.44
2022-11-28T03:38:51.026Z,100734.03
2022-11-28T03:41:25.432Z,100743.38
2022-11-28T03:43:56.546Z,100745.84
2022-11-28T03:46:31.634Z,100737.91
2022-11-28T03:48:59.788Z,100740.25
2022-11-28T03:51:37.453Z,100731.00
2022-11-28T03:54:08.066Z,100718.78
2022-11-28T03:56:54.772Z,100714.91
2022-11-28T03:59:44.319Z,100717.44
2022-11-28T04:02:19.747Z,100705.00
2022-11-28T04:04:55.350Z,100718.47
2022-11-28T04:07:42.730Z,100721.81
2022-11-28T04:10:27.084Z,100719.56
2022-11-28T04:13:12.212Z,100714.00
2022-11-28T04:15:50.844Z,100726.81
2022-11-28T04:18:21.510Z,100732.69
2022-11-28T04:20:53.573Z,100725.75
2022-11-28T04:23:22.191Z,100728.31
2022-11-28T04:26:02.792Z,100716.31
2022-11-28T04:28:33.203Z,100718.94
2022-11-28T04:31:02.819Z,100725.13
2022-11-28T04:33:34.581Z,100722.56
2022-11-28T04:36:03.266Z,100714.16
2022-11-28T04:38:32.089Z,100716.75
2022-11-28T04:41:08.276Z,100721.16
2022-11-28T04:43:39.304Z,100720.50
2022-11-28T04:46:16.350Z,100711.16
2022-11-28T04:48:43.543Z,100701.53
2022-11-28T04:51:21.763Z,100706.91
2022-11-28T04:54:09.917Z,100706.81
2022-11-28T04:56:57.999Z,100700.44
2022-11-28T04:59:26.821Z,100696.75
2022-11-28T05:01:54.351Z,100697.03
2022-11-28T05:04:21.576Z,100698.78
2022-11-28T05:06:48.110Z,100695.84
2022-11-28T05:09:14.756Z,100695.38
2022-11-28T05:11:41.364Z,100702.09
2022-11-28T05:14:08.314Z,100711.28
2022-11-28T05:16:35.136Z,100713.34
2022-11-28T05:19:02.196Z,100714.72
2022-11-28T05:21:28.747Z,100699.97
2022-11-28T05:23:55.198Z,100704.50
2022-11-28T05:26:21.670Z,100704.09
2022-11-28T05:28:50.956Z,100710.53
2022-11-28T05:31:20.545Z,100715.59
2022-11-28T05:33:47.231Z,100717.84
2022-11-28T05:36:15.164Z,100717.84
2022-11-28T05:38:42.458Z,100710.78
2022-11-28T05:41:09.704Z,100696.81
2022-11-28T05:43:36.739Z,100686.88
2022-11-28T05:46:06.042Z,100694.81
2022-11-28T05:48:32.774Z,100695.09
2022-11-28T05:50:59.336Z,100694.63
2022-11-28T05:53:25.986Z,100688.19
2022-11-28T05:55:52.489Z,100679.50
2022-11-28T05:58:18.939Z,100690.69
2022-11-28T06:00:45.459Z,100695.81
2022-11-28T06:03:12.055Z,100699.53
2022-11-28T06:05:43.230Z,100702.59
2022-11-28T06:08:12.421Z,100711.03
2022-11-28T06:10:39.177Z,100720.59
2022-11-28T06:13:06.298Z,100693.25
2022-11-28T06:15:37.517Z,100698.88
2022-11-28T06:18:04.917Z,100697.66
2022-11-28T06:20:31.504Z,100680.84
2022-11-28T06:22:57.948Z,100682.94
2022-11-28T06:25:24.686Z,100679.91
2022-11-28T06:27:51.292Z,100687.47
2022-11-28T06:30:18.313Z,100693.22
2022-11-28T06:32:44.882Z,100688.81
2022-11-28T06:35:11.684Z,100691.56
2022-11-28T06:37:38.396Z,100695.19
2022-11-28T06:40:05.994Z,100692.13
2022-11-28T06:42:36.548Z,100683.03
2022-11-28T06:45:07.963Z,100685.66
2022-11-28T06:47:34.596Z,100690.66
2022-11-28T06:50:03.997Z,100701.25
2022-11-28T06:52:30.644Z,100706.06
2022-11-28T06:54:57.060Z,100715.53
2022-11-28T06:57:23.806Z,100700.28
2022-11-28T06:59:50.673Z,100701.59
2022-11-28T07:02:17.443Z,100702.75
2022-11-28T07:04:44.030Z,100704.13
2022-11-28T07:07:15.045Z,100707.22
2022-11-28T07:09:43.138Z,100710.25
2022-11-28T07:12:10.143Z,100717.75
2022-11-28T07:14:36.712Z,100716.72
2022-11-28T07:17:04.900Z,100714.44
2022-11-28T07:19:31.410Z,100718.09
2022-11-28T07:21:57.899Z,100723.34
2022-11-28T07:24:24.456Z,100721.81
2022-11-28T07:26:50.944Z,100714.19
2022-11-28T07:29:19.031Z,100734.63
2022-11-28T07:31:45.596Z,100732.66
2022-11-28T07:34:12.761Z,100739.66
2022-11-28T07:36:39.221Z,100744.47
2022-11-28T07:39:08.631Z,100738.41
2022-11-28T07:41:36.063Z,100743.25
2022-11-28T07:44:04.223Z,100752.31
2022-11-28T07:46:31.900Z,100757.97
2022-11-28T07:48:58.470Z,100756.47
2022-11-28T07:51:27.982Z,100760.22
2022-11-28T07:53:54.909Z,100755.19
2022-11-28T07:56:24.806Z,100754.63
2022-11-28T07:58:51.572Z,100750.38
2022-11-28T08:01:23.951Z,100751.56
2022-11-28T08:03:52.050Z,100752.75
2022-11-28T08:06:21.422Z,100750.63
2022-11-28T08:08:48.690Z,100739.59
2022-11-28T08:11:18.342Z,100739.00
2022-11-28T08:13:45.663Z,100735.63
2022-11-28T08:16:18.948Z,100732.56
2022-11-28T08:18:46.694Z,100725.88
2022-11-28T08:21:16.455Z,100721.22
2022-11-28T08:23:45.319Z,100743.84
2022-11-28T08:26:14.355Z,100748.13
2022-11-28T08:28:41.875Z,100754.69
2022-11-28T08:31:13.151Z,100747.78
2022-11-28T08:33:40.323Z,100743.94
2022-11-28T08:36:08.435Z,100744.84
2022-11-28T08:38:35.488Z,100754.50
2022-11-28T08:41:04.573Z,100746.16
2022-11-28T08:43:31.526Z,100742.06
2022-11-28T08:45:58.057Z,100746.06
2022-11-28T08:48:24.586Z,100745.00
2022-11-28T08:50:51.068Z,100747.44
2022-11-28T08:53:18.631Z,100751.78
2022-11-28T08:55:45.263Z,100753.50
2022-11-28T08:58:12.878Z,100755.88
2022-11-28T09:00:40.320Z,100750.72
2022-11-28T09:03:06.827Z,100746.50
2022-11-28T09:05:33.381Z,100750.72
2022-11-28T09:07:59.939Z,100746.75
2022-11-28T09:10:26.510Z,100751.28
2022-11-28T09:12:53.000Z,100751.41
2022-11-28T09:15:19.844Z,100747.69
2022-11-28T09:17:46.617Z,100745.88
2022-11-28T09:20:13.350Z,100744.03
2022-11-28T09:22:40.724Z,100753.69
2022-11-28T09:25:07.904Z,100756.28
2022-11-28T09:27:34.401Z,100746.13
2022-11-28T09:30:00.855Z,100757.91
2022-11-28T09:32:27.284Z,100757.19
2022-11-28T09:34:53.840Z,100750.00
2022-11-28T09:37:20.298Z,100756.41
2022-11-28T09:40:11.385Z,100753.72
2022-11-28T09:42:43.682Z,100748.09
2022-11-28T09:45:19.407Z,100752.19
2022-11-28T09:47:50.364Z,100756.91
2022-11-28T09:50:24.563Z,100768.75
2022-11-28T09:53:01.760Z,100773.81
2022-11-28T09:55:49.846Z,100767.78
2022-11-28T09:58:26.738Z,100760.25
2022-11-28T10:00:55.930Z,100750.47
2022-11-28T10:03:37.671Z,100752.91
2022-11-28T10:06:31.126Z,100757.00
2022-11-28T10:09:19.554Z,100749.41
2022-11-28T10:12:00.928Z,100749.09
2022-11-28T10:15:06.075Z,100739.25
2022-11-28T10:18:00.783Z,100736.16
2022-11-28T10:20:31.267Z,100736.22
2022-11-28T10:23:04.821Z,100728.34
2022-11-28T10:25:42.668Z,100733.41
2022-11-28T10:28:16.655Z,100730.22
2022-11-28T10:30:48.852Z,100728.28
2022-11-28T10:33:26.797Z,100721.22
2022-11-28T10:35:59.580Z,100725.97
2022-11-28T10:38:27.952Z,100722.41
2022-11-28T10:41:17.120Z,100731.06
2022-11-28T10:43:59.500Z,100727.75
2022-11-28T10:46:44.596Z,100726.63
2022-11-28T10:49:20.292Z,100728.00
2022-11-28T10:51:58.525Z,100720.66
2022-11-28T10:54:46.558Z,100724.41
2022-11-28T10:57:24.002Z,100727.84
2022-11-28T11:00:03.557Z,100733.22
2022-11-28T11:02:48.561Z,100729.25
2022-11-28T11:05:21.751Z,100729.50
2022-11-28T11:07:51.978Z,100726.00
2022-11-28T11:10:36.826Z,100709.25
2022-11-28T11:13:26.353Z,100706.84
2022-11-28T11:16:06.320Z,100704.72
2022-11-28T11:18:51.005Z,100705.72
2022-11-28T11:21:22.771Z,100716.84
2022-11-28T11:24:01.099Z,100710.53
2022-11-28T11:26:33.915Z,100720.34
2022-11-28T11:29:02.375Z,100705.53
2022-11-28T11:31:43.091Z,100708.31
2022-11-28T11:34:18.565Z,100707.34
2022-11-28T11:36:45.915Z,100704.56
2022-11-28T11:39:15.050Z,100701.97
2022-11-28T11:41:44.447Z,100694.91
2022-11-28T11:44:13.644Z,100697.63
2022-11-28T11:47:05.732Z,100696.38
2022-11-28T11:49:38.173Z,100694.19
2022-11-28T11:52:15.131Z,100689.09
2022-11-28T11:54:47.322Z,100687.66
2022-11-28T11:57:32.601Z,100700.13
2022-11-28T12:00:18.326Z,100692.22
2022-11-28T12:02:55.508Z,100696.63
2022-11-28T12:05:46.423Z,100704.50
2022-11-28T12:08:34.808Z,100692.13
2022-11-28T12:11:26.039Z,100698.53
2022-11-28T12:13:52.906Z,100691.31
2022-11-28T12:16:51.864Z,100694.81
2022-11-28T12:19:46.047Z,100702.19
2022-11-28T12:22:30.644Z,100701.53
2022-11-28T12:25:26.276Z,100696.63
2022-11-28T12:28:17.835Z,100696.31
2022-11-28T12:31:21.807Z,100700.88
2022-11-28T12:34:13.444Z,100700.00
2022-11-28T12:37:05.111Z,100704.91
2022-11-28T12:39:39.679Z,100700.00
2022-11-28T12:42:29.230Z,100702.84
2022-11-28T12:45:19.757Z,100706.06
2022-11-28T12:47:56.386Z,100698.34
2022-11-28T12:50:42.494Z,100707.59
2022-11-28T12:53:47.663Z,100700.22
2022-11-28T12:56:42.227Z,100705.88
2022-11-28T12:59:31.448Z,100703.69
2022-11-28T13:02:18.878Z,100704.72
2022-11-28T13:05:19.685Z,100699.25
2022-11-28T13:07:48.936Z,100696.94
2022-11-28T13:11:03.347Z,100701.88
2022-11-28T13:13:39.723Z,100693.75
2022-11-28T13:16:34.997Z,100693.84
2022-11-28T13:19:08.914Z,100699.47
2022-11-28T13:21:43.836Z,100700.22
2022-11-28T13:24:23.312Z,100703.03
2022-11-28T13:27:17.191Z,100707.81
2022-11-28T13:29:47.143Z,100701.53
2022-11-28T13:32:28.512Z,100696.38
2022-11-28T13:34:56.063Z,100699.16
2022-11-28T13:40:38.132Z,100692.53
2022-11-28T13:43:23.205Z,100701.19
2022-11-28T13:45:52.535Z,100694.31
2022-11-28T13:49:06.150Z,100702.25
2022-11-28T13:51:32.054Z,100709.47
2022-11-28T13:54:17.178Z,100706.13
2022-11-28T13:56:46.223Z,100712.31
2022-11-28T13:59:22.877Z,100714.47
2022-11-28T14:02:32.929Z,100715.25
2022-11-28T14:05:00.091Z,100713.22
2022-11-28T14:07:33.394Z,100717.88
2022-11-28T14:10:27.320Z,100705.06
2022-11-28T14:13:23.032Z,100710.94
2022-11-28T14:16:04.784Z,100715.44
2022-11-28T14:18:57.751Z,100707.59
2022-11-28T14:21:30.548Z,100713.81
2022-11-28T14:24:29.665Z,100721.31
2022-11-28T14:27:01.031Z,100721.75
2022-11-28T14:29:39.281Z,100719.81
2022-11-28T14:32:28.942Z,100727.72
2022-11-28T14:34:54.170Z,100724.59
2022-11-28T14:37:21.255Z,100727.97
2022-11-28T14:39:50.336Z,100725.81
2022-11-28T14:42:43.825Z,100729.56
2022-11-28T14:45:32.978Z,100735.06
2022-11-28T14:48:18.596Z,100739.03
2022-11-28T14:50:49.427Z,100740.81
2022-11-28T14:53:42.364Z,100736.78
2022-11-28T14:56:15.349Z,100728.69
2022-11-28T14:58:50.084Z,100730.81
2022-11-28T15:01:43.035Z,100742.44
2022-11-28T15:04:33.918Z,100746.84
2022-11-28T15:07:03.990Z,100737.81
2022-11-28T15:09:38.219Z,100737.97
2022-11-28T15:12:33.490Z,100736.38
2022-11-28T15:15:00.296Z,100745.28
2022-11-28T15:17:33.237Z,100744.81
2022-11-28T15:20:27.805Z,100740.84
2022-11-28T15:22:55.123Z,100749.03
2022-11-28T15:25:26.263Z,100741.00
2022-11-28T15:27:55.315Z,100745.84
2022-11-28T15:30:28.924Z,100745.13
2022-11-28T15:33:02.645Z,100743.63
2022-11-28T15:35:29.227Z,100747.00
2022-11-28T15:37:58.411Z,100749.78
2022-11-28T15:40:31.180Z,100746.16
2022-11-28T15:43:00.133Z,100746.41
2022-11-28T15:45:33.016Z,100737.50
2022-11-28T15:48:00.416Z,100739.63
2022-11-28T15:50:30.122Z,100744.97
2022-11-28T15:53:18.841Z,100745.88
2022-11-28T15:55:46.096Z,100736.44
2022-11-28T15:58:31.658Z,100736.22
2022-11-28T16:01:05.433Z,100734.22
2022-11-28T16:03:46.177Z,100733.66
2022-11-28T16:06:12.825Z,100736.00
2022-11-28T16:08:48.147Z,100740.13
2022-11-28T16:11:19.709Z,100728.50
2022-11-28T16:13:47.200Z,100728.34
2022-11-28T16:16:23.918Z,100735.03
2022-11-28T16:19:02.700Z,100736.38
2022-11-28T16:21:36.072Z,100739.56
2022-11-28T16:24:04.900Z,100737.00
2022-11-28T16:26:36.780Z,100737.81
2022-11-28T16:29:05.946Z,100737.00
2022-11-28T16:31:33.780Z,100736.91
2022-11-28T16:34:03.298Z,100740.44
2022-11-28T16:36:30.955Z,100749.31
2022-11-28T16:39:24.096Z,100744.50
2022-11-28T16:41:54.615Z,100748.75
2022-11-28T16:44:24.921Z,100747.34
2022-11-28T16:46:57.308Z,100752.19
2022-11-28T16:49:37.517Z,100746.31
2022-11-28T16:52:22.035Z,100759.22
2022-11-28T16:54:49.921Z,100753.72
2022-11-28T16:57:16.902Z,100761.69
2022-11-28T16:59:44.587Z,100761.69
2022-11-28T17:02:18.953Z,100757.75
2022-11-28T17:04:47.983Z,100757.28
2022-11-28T17:07:17.177Z,100759.47
2022-11-28T17:09:46.727Z,100752.56
2022-11-28T17:12:27.339Z,100750.63
2022-11-28T17:14:54.889Z,100761.63
2022-11-28T17:17:26.143Z,100763.72
2022-11-28T17:19:52.794Z,100774.53
2022-11-28T17:22:22.956Z,100778.88
2022-11-28T17:24:50.080Z,100788.00
2022-11-28T17:27:16.837Z,100784.44
2022-11-28T17:29:44.275Z,100791.97
2022-11-28T17:32:13.368Z,100792.69
2022-11-28T17:34:42.047Z,100797.84
2022-11-28T17:37:09.372Z,100792.94
2022-11-28T17:39:35.875Z,100795.16
2022-11-28T17:42:02.654Z,100789.41
2022-11-28T17:44:31.888Z,100793.16
2022-11-28T17:47:01.014Z,100796.41
2022-11-28T17:49:28.897Z,100795.47
2022-11-28T17:51:56.694Z,100786.72
2022-11-28T17:54:25.955Z,100793.03
2022-11-28T17:56:53.342Z,100796.78
2022-11-28T17:59:22.585Z,100798.91
2022-11-28T18:01:49.689Z,100802.66
2022-11-28T18:04:22.796Z,100795.06
2022-11-28T18:06:49.762Z,100801.34
2022-11-28T18:09:16.282Z,100808.72
2022-11-28T18:11:43.465Z,100809.44
2022-11-28T18:14:10.477Z,100806.19
2022-11-28T18:16:39.556Z,100804.28
2022-11-28T18:19:06.907Z,100803.47
2022-11-28T18:21:33.825Z,100799.16
2022-11-28T18:24:00.707Z,100800.53
2022-11-28T18:26:27.772Z,100803.00
2022-11-28T18:28:54.610Z,100808.41
2022-11-28T18:31:25.221Z,100808.41
2022-11-28T18:33:56.174Z,100806.75
2022-11-28T18:36:27.583Z,100814.84
2022-11-28T18:39:02.373Z,100816.16
2022-11-28T18:41:30.188Z,100820.47
2022-11-28T18:44:04.623Z,100814.03
2022-11-28T18:46:33.236Z,100822.13
2022-11-28T18:49:00.952Z,100821.06
2022-11-28T18:51:34.901Z,100818.72
2022-11-28T18:54:05.545Z,100811.09
2022-11-28T18:56:33.939Z,100820.00
2022-11-28T18:59:00.583Z,100819.03
2022-11-28T19:01:30.896Z,100828.69
2022-11-28T19:03:59.074Z,100824.44
2022-11-28T19:06:26.465Z,100835.72
2022-11-28T19:08:54.992Z,100830.31
2022-11-28T19:11:23.082Z,100834.31
2022-11-28T19:13:51.613Z,100827.59
2022-11-28T19:16:20.727Z,100832.53
2022-11-28T19:18:48.048Z,100823.41
2022-11-28T19:21:18.732Z,100823.88
2022-11-28T19:23:47.124Z,100829.94
2022-11-28T19:26:15.873Z,100830.97
2022-11-28T19:28:43.189Z,100829.84
2022-11-28T19:31:15.701Z,100822.88
2022-11-28T19:33:44.068Z,100818.00
2022-11-28T19:36:12.777Z,100823.28
2022-11-28T19:38:40.306Z,100831.88
2022-11-28T19:41:11.794Z,100829.84
2022-11-28T19:43:38.966Z,100838.41
2022-11-28T19:46:06.911Z,100840.44
2022-11-28T19:48:35.458Z,100839.84
2022-11-28T19:51:04.069Z,100839.75
2022-11-28T19:53:32.231Z,100840.81
2022-11-28T19:56:13.531Z,100838.91
2022-11-28T19:58:41.027Z,100838.09
2022-11-28T20:01:15.716Z,100836.78
2022-11-28T20:03:43.231Z,100845.97
2022-11-28T20:06:16.733Z,100853.25
2022-11-28T20:08:43.822Z,100851.44
2022-11-28T20:11:34.234Z,100854.03
2022-11-28T20:14:11.206Z,100864.25
2022-11-28T20:16:39.483Z,100864.25
2022-11-28T20:19:07.211Z,100864.25
2022-11-28T20:21:34.591Z,100863.66
2022-11-28T20:24:05.000Z,100872.34
2022-11-28T20:26:36.879Z,100865.31
2022-11-28T20:29:03.874Z,100865.06
2022-11-28T20:31:33.901Z,100854.28
2022-11-28T20:34:02.014Z,100861.56
2022-11-28T20:36:31.057Z,100852.41
2022-11-28T20:38:58.660Z,100855.94
2022-11-28T20:41:27.081Z,100863.75
2022-11-28T20:43:53.804Z,100858.97
2022-11-28T20:46:27.282Z,100866.22
2022-11-28T20:48:57.282Z,100861.06
2022-11-28T20:51:25.488Z,100866.31
2022-11-28T20:53:53.173Z,100867.41
2022-11-28T20:56:25.507Z,100872.84
2022-11-28T20:58:52.752Z,100880.06
2022-11-28T21:01:24.477Z,100873.97
2022-11-28T21:03:51.799Z,100870.81
2022-11-28T21:06:19.131Z,100865.66
2022-11-28T21:08:46.062Z,100867.53
2022-11-28T21:11:30.921Z,100863.41
2022-11-28T21:14:02.207Z,100869.41
2022-11-28T21:16:31.326Z,100875.84
2022-11-28T21:19:07.335Z,100879.22
2022-11-28T21:21:34.788Z,100877.25
2022-11-28T21:24:04.365Z,100879.13
2022-11-28T21:26:33.064Z,100883.72
2022-11-28T21:29:07.332Z,100891.00
2022-11-28T21:31:36.665Z,100887.44
2022-11-28T21:34:03.514Z,100884.53
2022-11-28T21:36:31.774Z,100887.94
2022-11-28T21:39:00.757Z,100884.66
2022-11-28T21:41:31.356Z,100880.69
2022-11-28T21:43:59.496Z,100879.25
2022-11-28T21:46:26.865Z,100879.72
2022-11-28T21:48:53.678Z,100887.00
2022-11-28T21:51:24.889Z,100882.09
2022-11-28T21:53:52.117Z,100877.75
2022-11-28T21:56:19.804Z,100882.66
2022-11-28T21:58:46.262Z,100888.31
2022-11-28T22:01:14.276Z,100885.97
2022-11-28T22:03:43.633Z,100887.94
2022-11-28T22:06:16.911Z,100888.44
2022-11-28T22:08:44.189Z,100891.59
2022-11-28T22:11:13.285Z,100897.34
2022-11-28T22:13:45.861Z,100903.19
2022-11-28T22:16:18.790Z,100901.91
2022-11-28T22:18:46.704Z,100899.69
2022-11-28T22:21:50.016Z,100891.59
2022-11-28T22:24:02.951Z,100893.47
2022-11-28T22:26:29.486Z,100894.53
2022-11-28T22:28:58.884Z,100892.88
2022-11-28T22:31:25.831Z,100902.16
2022-11-28T22:33:52.815Z,100901.78
2022-11-28T22:36:21.019Z,100902.84
2022-11-28T22:38:49.054Z,100900.75
2022-11-28T22:41:24.804Z,100906.38
2022-11-28T22:43:56.873Z,100898.84
2022-11-28T22:46:23.785Z,100908.47
2022-11-28T22:48:51.703Z,100900.41
2022-11-28T22:51:21.855Z,100904.97
2022-11-28T22:53:53.296Z,100909.75
2022-11-28T22:56:19.911Z,100899.81
2022-11-28T22:58:46.729Z,100905.78
2022-11-28T23:01:18.835Z,100907.66
2022-11-28T23:03:46.472Z,100897.81
2022-11-28T23:06:19.198Z,100900.75
2022-11-28T23:08:46.741Z,100899.94
2022-11-28T23:11:16.329Z,100905.91
2022-11-28T23:13:44.305Z,100903.22
2022-11-28T23:16:19.119Z,100914.34
2022-11-28T23:18:48.195Z,100909.38
2022-11-28T23:21:15.844Z,100917.00
2022-11-28T23:23:44.031Z,100917.97
2022-11-28T23:26:16.587Z,100906.59
2022-11-28T23:28:43.902Z,100902.84
2022-11-28T23:31:14.918Z,100903.09
2022-11-28T23:33:41.986Z,100904.50
2022-11-28T23:36:15.872Z,100904.97
2022-11-28T23:38:43.648Z,100921.25
2022-11-28T23:41:11.154Z,100913.41
2022-11-28T23:43:37.736Z,100913.75
2022-11-28T23:46:05.179Z,100913.31
2022-11-28T23:48:32.123Z,100914.47
2022-11-28T23:50:59.188Z,100921.13
2022-11-28T23:53:26.015Z,100920.44
2022-11-28T23:55:52.470Z,100916.34
2022-11-28T23:58:19.143Z,100922.88
